sensor_id;sensor_type;location;lat;lon;timestamp;pressure;altitude;pressure_sealevel;temperature;humidity
73085;BME280;62974;49.460;10.892;2024-01-07T00:02:08;97033.59;;;2.72;100.00
73085;BME280;62974;49.460;10.892;2024-01-07T00:04:36;97035.13;;;2.66;100.00
73085;BME280;62974;49.460;10.892;2024-01-07T00:07:04;97028.28;;;2.80;100.00
73085;BME280;62974;49.460;10.892;2024-01-07T00:09:33;97026.50;;;2.64;100.00
73085;BME280;62974;49.460;10.892;2024-01-07T00:12:01;97035.09;;;2.74;100.00
73085;BME280;62974;49.460;10.892;2024-01-07T00:14:28;97035.44;;;2.63;100.00
73085;BME280;62974;49.460;10.892;2024-01-07T00:16:56;97036.97;;;2.58;100.00
73085;BME280;62974;49.460;10.892;2024-01-07T00:19:25;97040.28;;;2.52;100.00
73085;BME280;62974;49.460;10.892;2024-01-07T00:21:55;97035.31;;;2.57;100.00
73085;BME280;62974;49.460;10.892;2024-01-07T00:24:22;97033.16;;;2.52;100.00
73085;BME280;62974;49.460;10.892;2024-01-07T00:26:53;97033.75;;;2.78;100.00
73085;BME280;62974;49.460;10.892;2024-01-07T00:29:23;97034.78;;;2.69;100.00
73085;BME280;62974;49.460;10.892;2024-01-07T00:31:53;97033.47;;;2.57;100.00
73085;BME280;62974;49.460;10.892;2024-01-07T00:34:23;97038.66;;;2.51;100.00
73085;BME280;62974;49.460;10.892;2024-01-07T00:36:51;97040.25;;;2.60;100.00
73085;BME280;62974;49.460;10.892;2024-01-07T00:39:21;97036.72;;;2.75;100.00
73085;BME280;62974;49.460;10.892;2024-01-07T00:41:54;97040.13;;;2.53;100.00
73085;BME280;62974;49.460;10.892;2024-01-07T00:44:25;97043.84;;;2.75;100.00
73085;BME280;62974;49.460;10.892;2024-01-07T00:46:52;97053.94;;;2.79;100.00
73085;BME280;62974;49.460;10.892;2024-01-07T00:49:24;97050.72;;;2.53;100.00
73085;BME280;62974;49.460;10.892;2024-01-07T00:51:55;97041.09;;;2.52;100.00
73085;BME280;62974;49.460;10.892;2024-01-07T00:54:23;97043.03;;;2.82;100.00
73085;BME280;62974;49.460;10.892;2024-01-07T00:56:55;97056.25;;;2.91;100.00
73085;BME280;62974;49.460;10.892;2024-01-07T00:59:23;97064.75;;;2.78;100.00
73085;BME280;62974;49.460;10.892;2024-01-07T01:01:51;97056.66;;;2.55;100.00
73085;BME280;62974;49.460;10.892;2024-01-07T01:04:18;97058.16;;;2.66;100.00
73085;BME280;62974;49.460;10.892;2024-01-07T01:06:47;97064.28;;;2.66;100.00
73085;BME280;62974;49.460;10.892;2024-01-07T01:09:14;97054.84;;;2.56;100.00
73085;BME280;62974;49.460;10.892;2024-01-07T01:11:44;97059.66;;;2.52;100.00
73085;BME280;62974;49.460;10.892;2024-01-07T01:14:13;97067.44;;;2.62;100.00
73085;BME280;62974;49.460;10.892;2024-01-07T01:16:40;97061.47;;;2.52;100.00
73085;BME280;62974;49.460;10.892;2024-01-07T01:19:08;97061.59;;;2.74;100.00
73085;BME280;62974;49.460;10.892;2024-01-07T01:21:36;97077.16;;;2.77;100.00
73085;BME280;62974;49.460;10.892;2024-01-07T01:24:06;97076.97;;;2.79;100.00
73085;BME280;62974;49.460;10.892;2024-01-07T01:26:34;97076.69;;;2.74;100.00
73085;BME280;62974;49.460;10.892;2024-01-07T01:29:01;97076.69;;;2.74;100.00
73085;BME280;62974;49.460;10.892;2024-01-07T01:31:30;97081.66;;;2.61;100.00
73085;BME280;62974;49.460;10.892;2024-01-07T01:34:01;97068.09;;;2.56;100.00
73085;BME280;62974;49.460;10.892;2024-01-07T01:36:33;97072.47;;;2.88;100.00
73085;BME280;62974;49.460;10.892;2024-01-07T01:39:02;97078.50;;;2.65;100.00
73085;BME280;62974;49.460;10.892;2024-01-07T01:41:30;97078.03;;;2.54;100.00
73085;BME280;62974;49.460;10.892;2024-01-07T01:43:58;97073.88;;;2.51;100.00
73085;BME280;62974;49.460;10.892;2024-01-07T01:46:26;97073.38;;;2.56;100.00
73085;BME280;62974;49.460;10.892;2024-01-07T01:48:58;97074.34;;;2.71;100.00
73085;BME280;62974;49.460;10.892;2024-01-07T01:51:26;97071.09;;;2.53;100.00
73085;BME280;62974;49.460;10.892;2024-01-07T01:53:57;97076.06;;;2.48;100.00
73085;BME280;62974;49.460;10.892;2024-01-07T01:56:27;97078.66;;;2.72;100.00
73085;BME280;62974;49.460;10.892;2024-01-07T01:58:55;97080.00;;;2.60;100.00
73085;BME280;62974;49.460;10.892;2024-01-07T02:01:23;97083.16;;;2.55;100.00
73085;BME280;62974;49.460;10.892;2024-01-07T02:03:51;97086.97;;;2.53;100.00
73085;BME280;62974;49.460;10.892;2024-01-07T02:06:23;97073.88;;;2.59;100.00
73085;BME280;62974;49.460;10.892;2024-01-07T02:08:52;97085.16;;;2.53;100.00
73085;BME280;62974;49.460;10.892;2024-01-07T02:11:22;97080.69;;;2.62;100.00
73085;BME280;62974;49.460;10.892;2024-01-07T02:13:50;97080.03;;;2.52;100.00
73085;BME280;62974;49.460;10.892;2024-01-07T02:16:18;97073.25;;;2.41;100.00
73085;BME280;62974;49.460;10.892;2024-01-07T02:18:48;97086.47;;;2.65;100.00
73085;BME280;62974;49.460;10.892;2024-01-07T02:21:16;97090.94;;;2.57;100.00
73085;BME280;62974;49.460;10.892;2024-01-07T02:23:47;97090.31;;;2.39;100.00
73085;BME280;62974;49.460;10.892;2024-01-07T02:26:16;97081.19;;;2.49;100.00
73085;BME280;62974;49.460;10.892;2024-01-07T02:28:44;97084.50;;;2.51;100.00
73085;BME280;62974;49.460;10.892;2024-01-07T02:31:12;97093.63;;;2.49;100.00
73085;BME280;62974;49.460;10.892;2024-01-07T02:33:40;97085.00;;;2.47;100.00
73085;BME280;62974;49.460;10.892;2024-01-07T02:36:08;97086.16;;;2.36;100.00
73085;BME280;62974;49.460;10.892;2024-01-07T02:38:36;97088.66;;;2.38;100.00
73085;BME280;62974;49.460;10.892;2024-01-07T02:41:06;97085.75;;;2.79;100.00
73085;BME280;62974;49.460;10.892;2024-01-07T02:43:38;97093.13;;;2.45;100.00
73085;BME280;62974;49.460;10.892;2024-01-07T02:46:07;97095.25;;;2.66;100.00
73085;BME280;62974;49.460;10.892;2024-01-07T02:48:35;97096.22;;;2.65;100.00
73085;BME280;62974;49.460;10.892;2024-01-07T02:51:03;97109.00;;;2.53;100.00
73085;BME280;62974;49.460;10.892;2024-01-07T02:53:31;97112.13;;;2.73;100.00
73085;BME280;62974;49.460;10.892;2024-01-07T02:55:59;97113.63;;;2.67;100.00
73085;BME280;62974;49.460;10.892;2024-01-07T02:58:27;97111.16;;;2.50;100.00
73085;BME280;62974;49.460;10.892;2024-01-07T03:00:56;97107.00;;;2.63;100.00
73085;BME280;62974;49.460;10.892;2024-01-07T03:03:24;97114.16;;;2.47;100.00
73085;BME280;62974;49.460;10.892;2024-01-07T03:05:53;97127.88;;;2.58;100.00
73085;BME280;62974;49.460;10.892;2024-01-07T03:08:21;97129.38;;;2.28;100.00
73085;BME280;62974;49.460;10.892;2024-01-07T03:10:51;97138.81;;;2.47;100.00
73085;BME280;62974;49.460;10.892;2024-01-07T03:13:21;97150.22;;;2.23;100.00
73085;BME280;62974;49.460;10.892;2024-01-07T03:15:56;97146.75;;;2.63;100.00
73085;BME280;62974;49.460;10.892;2024-01-07T03:18:23;97167.28;;;2.29;100.00
73085;BME280;62974;49.460;10.892;2024-01-07T03:20:51;97157.19;;;2.49;100.00
73085;BME280;62974;49.460;10.892;2024-01-07T03:23:19;97164.31;;;2.40;100.00
73085;BME280;62974;49.460;10.892;2024-01-07T03:25:47;97168.13;;;2.62;100.00
73085;BME280;62974;49.460;10.892;2024-01-07T03:28:14;97183.03;;;2.39;100.00
73085;BME280;62974;49.460;10.892;2024-01-07T03:30:42;97177.22;;;2.27;100.00
73085;BME280;62974;49.460;10.892;2024-01-07T03:33:11;97176.72;;;2.23;100.00
73085;BME280;62974;49.460;10.892;2024-01-07T03:35:40;97183.53;;;2.34;100.00
73085;BME280;62974;49.460;10.892;2024-01-07T03:38:07;97180.03;;;2.17;100.00
73085;BME280;62974;49.460;10.892;2024-01-07T03:40:35;97176.09;;;2.54;100.00
73085;BME280;62974;49.460;10.892;2024-01-07T03:43:05;97184.66;;;2.31;100.00
73085;BME280;62974;49.460;10.892;2024-01-07T03:45:32;97180.03;;;2.25;100.00
73085;BME280;62974;49.460;10.892;2024-01-07T03:48:00;97191.28;;;2.35;100.00
73085;BME280;62974;49.460;10.892;2024-01-07T03:50:29;97184.50;;;2.33;100.00
73085;BME280;62974;49.460;10.892;2024-01-07T03:52:57;97193.88;;;2.03;100.00
73085;BME280;62974;49.460;10.892;2024-01-07T03:55:24;97188.63;;;2.19;100.00
73085;BME280;62974;49.460;10.892;2024-01-07T03:57:58;97186.66;;;2.29;100.00
73085;BME280;62974;49.460;10.892;2024-01-07T04:00:25;97194.94;;;2.26;100.00
73085;BME280;62974;49.460;10.892;2024-01-07T04:02:53;97196.28;;;2.39;100.00
73085;BME280;62974;49.460;10.892;2024-01-07T04:05:23;97199.06;;;2.13;100.00
73085;BME280;62974;49.460;10.892;2024-01-07T04:07:53;97208.66;;;2.14;100.00
73085;BME280;62974;49.460;10.892;2024-01-07T04:10:21;97204.03;;;2.24;100.00
73085;BME280;62974;49.460;10.892;2024-01-07T04:12:51;97212.63;;;2.10;100.00
73085;BME280;62974;49.460;10.892;2024-01-07T04:15:19;97208.47;;;2.07;100.00
73085;BME280;62974;49.460;10.892;2024-01-07T04:17:47;97210.50;;;2.21;100.00
73085;BME280;62974;49.460;10.892;2024-01-07T04:20:15;97218.56;;;2.12;100.00
73085;BME280;62974;49.460;10.892;2024-01-07T04:22:43;97217.78;;;2.35;100.00
73085;BME280;62974;49.460;10.892;2024-01-07T04:25:12;97218.56;;;2.12;100.00
73085;BME280;62974;49.460;10.892;2024-01-07T04:27:39;97231.94;;;1.94;100.00
73085;BME280;62974;49.460;10.892;2024-01-07T04:30:09;97233.69;;;1.77;100.00
73085;BME280;62974;49.460;10.892;2024-01-07T04:32:40;97241.88;;;2.00;100.00
73085;BME280;62974;49.460;10.892;2024-01-07T04:35:07;97246.28;;;1.83;100.00
73085;BME280;62974;49.460;10.892;2024-01-07T04:37:36;97252.38;;;1.76;100.00
73085;BME280;62974;49.460;10.892;2024-01-07T04:40:05;97246.91;;;1.69;100.00
73085;BME280;62974;49.460;10.892;2024-01-07T04:42:35;97248.59;;;1.78;100.00
73085;BME280;62974;49.460;10.892;2024-01-07T04:45:03;97261.53;;;1.89;100.00
73085;BME280;62974;49.460;10.892;2024-01-07T04:47:33;97264.25;;;1.72;100.00
73085;BME280;62974;49.460;10.892;2024-01-07T04:50:03;97260.75;;;2.05;100.00
73085;BME280;62974;49.460;10.892;2024-01-07T04:52:31;97270.78;;;1.85;100.00
73085;BME280;62974;49.460;10.892;2024-01-07T04:54:59;97266.31;;;1.86;100.00
73085;BME280;62974;49.460;10.892;2024-01-07T04:57:26;97275.69;;;1.72;100.00
73085;BME280;62974;49.460;10.892;2024-01-07T04:59:55;97272.75;;;1.83;100.00
73085;BME280;62974;49.460;10.892;2024-01-07T05:02:23;97270.34;;;1.64;100.00
73085;BME280;62974;49.460;10.892;2024-01-07T05:04:51;97290.31;;;1.51;100.00
73085;BME280;62974;49.460;10.892;2024-01-07T05:07:18;97288.97;;;1.47;100.00
73085;BME280;62974;49.460;10.892;2024-01-07T05:09:46;97282.03;;;1.87;100.00
73085;BME280;62974;49.460;10.892;2024-01-07T05:12:13;97291.00;;;1.61;100.00
73085;BME280;62974;49.460;10.892;2024-01-07T05:14:41;97288.00;;;1.89;100.00
73085;BME280;62974;49.460;10.892;2024-01-07T05:17:12;97301.63;;;1.69;100.00
73085;BME280;62974;49.460;10.892;2024-01-07T05:19:40;97305.13;;;1.43;100.00
73085;BME280;62974;49.460;10.892;2024-01-07T05:22:08;97309.47;;;1.53;100.00
73085;BME280;62974;49.460;10.892;2024-01-07T05:24:36;97310.31;;;1.53;100.00
73085;BME280;62974;49.460;10.892;2024-01-07T05:27:09;97311.34;;;1.60;100.00
73085;BME280;62974;49.460;10.892;2024-01-07T05:29:44;97322.19;;;1.23;100.00
73085;BME280;62974;49.460;10.892;2024-01-07T05:32:20;97328.13;;;1.43;100.00
73085;BME280;62974;49.460;10.892;2024-01-07T05:34:47;97320.53;;;1.48;100.00
73085;BME280;62974;49.460;10.892;2024-01-07T05:37:18;97331.00;;;1.32;100.00
73085;BME280;62974;49.460;10.892;2024-01-07T05:39:46;97339.41;;;1.53;100.00
73085;BME280;62974;49.460;10.892;2024-01-07T05:42:14;97338.81;;;1.16;100.00
73085;BME280;62974;49.460;10.892;2024-01-07T05:44:43;97343.25;;;1.33;100.00
73085;BME280;62974;49.460;10.892;2024-01-07T05:47:12;97338.31;;;1.38;100.00
73085;BME280;62974;49.460;10.892;2024-01-07T05:49:41;97340.41;;;1.52;100.00
73085;BME280;62974;49.460;10.892;2024-01-07T05:52:09;97360.59;;;1.35;100.00
73085;BME280;62974;49.460;10.892;2024-01-07T05:54:37;97353.31;;;1.12;100.00
73085;BME280;62974;49.460;10.892;2024-01-07T05:57:05;97358.09;;;0.90;100.00
73085;BME280;62974;49.460;10.892;2024-01-07T05:59:35;97359.22;;;1.23;100.00
73085;BME280;62974;49.460;10.892;2024-01-07T06:02:03;97365.28;;;0.98;100.00
73085;BME280;62974;49.460;10.892;2024-01-07T06:04:33;97363.16;;;0.84;100.00
73085;BME280;62974;49.460;10.892;2024-01-07T06:07:03;97367.22;;;1.14;100.00
73085;BME280;62974;49.460;10.892;2024-01-07T06:09:31;97365.16;;;1.69;100.00
73085;BME280;62974;49.460;10.892;2024-01-07T06:11:59;97378.09;;;0.93;100.00
73085;BME280;62974;49.460;10.892;2024-01-07T06:14:26;97377.59;;;1.07;100.00
73085;BME280;62974;49.460;10.892;2024-01-07T06:16:57;97379.00;;;0.84;100.00
73085;BME280;62974;49.460;10.892;2024-01-07T06:19:29;97378.09;;;0.93;100.00
73085;BME280;62974;49.460;10.892;2024-01-07T06:22:00;97381.22;;;1.06;100.00
73085;BME280;62974;49.460;10.892;2024-01-07T06:24:29;97384.19;;;0.76;100.00
73085;BME280;62974;49.460;10.892;2024-01-07T06:26:56;97386.13;;;1.19;100.00
73085;BME280;62974;49.460;10.892;2024-01-07T06:29:26;97390.56;;;1.18;100.00
73085;BME280;62974;49.460;10.892;2024-01-07T06:31:54;97385.72;;;0.96;100.00
73085;BME280;62974;49.460;10.892;2024-01-07T06:34:22;97389.72;;;0.65;100.00
73085;BME280;62974;49.460;10.892;2024-01-07T06:36:49;97396.59;;;0.93;100.00
73085;BME280;62974;49.460;10.892;2024-01-07T06:39:17;97398.41;;;0.75;100.00
73085;BME280;62974;49.460;10.892;2024-01-07T06:41:46;97395.25;;;0.89;100.00
73085;BME280;62974;49.460;10.892;2024-01-07T06:44:13;97411.19;;;0.97;100.00
73085;BME280;62974;49.460;10.892;2024-01-07T06:46:42;97407.69;;;0.97;100.00
73085;BME280;62974;49.460;10.892;2024-01-07T06:49:10;97405.59;;;1.00;100.00
73085;BME280;62974;49.460;10.892;2024-01-07T06:51:38;97403.41;;;0.96;100.00
73085;BME280;62974;49.460;10.892;2024-01-07T06:54:10;97404.22;;;0.96;100.00
73085;BME280;62974;49.460;10.892;2024-01-07T06:56:40;97406.84;;;0.61;100.00
73085;BME280;62974;49.460;10.892;2024-01-07T06:59:10;97407.47;;;1.08;100.00
73085;BME280;62974;49.460;10.892;2024-01-07T07:01:38;97412.56;;;0.83;100.00
73085;BME280;62974;49.460;10.892;2024-01-07T07:04:06;97407.19;;;0.93;100.00
73085;BME280;62974;49.460;10.892;2024-01-07T07:06:36;97412.78;;;0.90;100.00
73085;BME280;62974;49.460;10.892;2024-01-07T07:09:04;97411.09;;;1.42;100.00
73085;BME280;62974;49.460;10.892;2024-01-07T07:11:32;97421.44;;;0.82;100.00
73085;BME280;62974;49.460;10.892;2024-01-07T07:13:59;97416.28;;;0.63;100.00
73085;BME280;62974;49.460;10.892;2024-01-07T07:16:29;97418.88;;;1.08;100.00
73085;BME280;62974;49.460;10.892;2024-01-07T07:18:59;97416.69;;;1.04;100.00
73085;BME280;62974;49.460;10.892;2024-01-07T07:21:28;97413.91;;;1.05;100.00
73085;BME280;62974;49.460;10.892;2024-01-07T07:23:58;97416.94;;;0.47;100.00
73085;BME280;62974;49.460;10.892;2024-01-07T07:26:26;97426.44;;;0.85;100.00
73085;BME280;62974;49.460;10.892;2024-01-07T07:28:54;97439.22;;;0.35;100.00
73085;BME280;62974;49.460;10.892;2024-01-07T07:31:20;97438.72;;;0.50;100.00
73085;BME280;62974;49.460;10.892;2024-01-07T07:33:49;97446.03;;;0.65;100.00
73085;BME280;62974;49.460;10.892;2024-01-07T07:36:17;97453.75;;;0.76;100.00
73085;BME280;62974;49.460;10.892;2024-01-07T07:38:45;97455.63;;;0.66;100.00
73085;BME280;62974;49.460;10.892;2024-01-07T07:41:13;97453.19;;;0.55;100.00
73085;BME280;62974;49.460;10.892;2024-01-07T07:43:40;97454.38;;;0.61;100.00
73085;BME280;62974;49.460;10.892;2024-01-07T07:46:08;97461.13;;;0.73;100.00
73085;BME280;62974;49.460;10.892;2024-01-07T07:48:35;97459.47;;;0.99;100.00
73085;BME280;62974;49.460;10.892;2024-01-07T07:51:05;97470.59;;;0.75;100.00
73085;BME280;62974;49.460;10.892;2024-01-07T07:53:33;97469.63;;;1.12;100.00
73085;BME280;62974;49.460;10.892;2024-01-07T07:56:04;97479.09;;;0.69;100.00
73085;BME280;62974;49.460;10.892;2024-01-07T07:58:32;97478.41;;;1.12;100.00
73085;BME280;62974;49.460;10.892;2024-01-07T08:00:59;97486.34;;;0.67;100.00
73085;BME280;62974;49.460;10.892;2024-01-07T08:03:27;97484.97;;;0.90;100.00
73085;BME280;62974;49.460;10.892;2024-01-07T08:05:55;97490.34;;;0.99;100.00
73085;BME280;62974;49.460;10.892;2024-01-07T08:08:23;97488.41;;;1.18;100.00
73085;BME280;62974;49.460;10.892;2024-01-07T08:10:51;97494.75;;;0.53;100.00
73085;BME280;62974;49.460;10.892;2024-01-07T08:13:23;97502.84;;;0.79;100.00
73085;BME280;62974;49.460;10.892;2024-01-07T08:15:51;97501.78;;;0.62;100.00
73085;BME280;62974;49.460;10.892;2024-01-07T08:18:18;97502.41;;;0.83;100.00
73085;BME280;62974;49.460;10.892;2024-01-07T08:20:46;97499.25;;;0.98;100.00
73085;BME280;62974;49.460;10.892;2024-01-07T08:23:14;97509.00;;;0.33;100.00
73085;BME280;62974;49.460;10.892;2024-01-07T08:25:43;97505.28;;;0.90;100.00
73085;BME280;62974;49.460;10.892;2024-01-07T08:28:15;97518.22;;;0.56;100.00
73085;BME280;62974;49.460;10.892;2024-01-07T08:30:43;97507.28;;;0.78;100.00
73085;BME280;62974;49.460;10.892;2024-01-07T08:33:11;97505.91;;;0.47;100.00
73085;BME280;62974;49.460;10.892;2024-01-07T08:35:41;97515.69;;;0.64;100.00
73085;BME280;62974;49.460;10.892;2024-01-07T08:38:09;97518.81;;;0.40;100.00
73085;BME280;62974;49.460;10.892;2024-01-07T08:40:40;97512.56;;;0.41;100.00
73085;BME280;62974;49.460;10.892;2024-01-07T08:43:11;97509.91;;;0.51;100.00
73085;BME280;62974;49.460;10.892;2024-01-07T08:45:38;97522.13;;;0.15;100.00
73085;BME280;62974;49.460;10.892;2024-01-07T08:48:07;97528.72;;;0.29;100.00
73085;BME280;62974;49.460;10.892;2024-01-07T08:50:37;97532.44;;;0.45;100.00
73085;BME280;62974;49.460;10.892;2024-01-07T08:53:05;97543.06;;;0.26;100.00
73085;BME280;62974;49.460;10.892;2024-01-07T08:55:33;97537.53;;;0.57;100.00
73085;BME280;62974;49.460;10.892;2024-01-07T08:58:00;97544.78;;;-0.02;100.00
73085;BME280;62974;49.460;10.892;2024-01-07T09:00:30;97555.13;;;0.38;100.00
73085;BME280;62974;49.460;10.892;2024-01-07T09:02:58;97562.81;;;0.22;100.00
73085;BME280;62974;49.460;10.892;2024-01-07T09:05:26;97553.50;;;0.09;100.00
73085;BME280;62974;49.460;10.892;2024-01-07T09:07:54;97551.94;;;0.72;100.00
73085;BME280;62974;49.460;10.892;2024-01-07T09:10:22;97563.22;;;0.27;100.00
73085;BME280;62974;49.460;10.892;2024-01-07T09:12:51;97558.78;;;0.18;100.00
73085;BME280;62974;49.460;10.892;2024-01-07T09:15:20;97567.91;;;0.33;100.00
73085;BME280;62974;49.460;10.892;2024-01-07T09:17:49;97573.63;;;0.38;100.00
73085;BME280;62974;49.460;10.892;2024-01-07T09:20:17;97582.41;;;0.10;100.00
73085;BME280;62974;49.460;10.892;2024-01-07T09:22:49;97581.03;;;0.06;100.00
73085;BME280;62974;49.460;10.892;2024-01-07T09:25:16;97589.19;;;0.32;100.00
73085;BME280;62974;49.460;10.892;2024-01-07T09:27:44;97590.78;;;-0.04;100.00
73085;BME280;62974;49.460;10.892;2024-01-07T09:30:13;97595.34;;;-0.25;100.00
73085;BME280;62974;49.460;10.892;2024-01-07T09:32:41;97608.78;;;0.39;100.00
73085;BME280;62974;49.460;10.892;2024-01-07T09:35:10;97611.31;;;-0.36;100.00
73085;BME280;62974;49.460;10.892;2024-01-07T09:37:38;97610.47;;;-0.27;100.00
73085;BME280;62974;49.460;10.892;2024-01-07T09:40:07;97603.81;;;-0.03;100.00
73085;BME280;62974;49.460;10.892;2024-01-07T09:42:37;97606.34;;;-0.20;100.00
73085;BME280;62974;49.460;10.892;2024-01-07T09:45:08;97599.78;;;-0.07;100.00
73085;BME280;62974;49.460;10.892;2024-01-07T09:47:42;97605.09;;;-0.16;100.00
73085;BME280;62974;49.460;10.892;2024-01-07T09:50:13;97608.41;;;-0.14;100.00
73085;BME280;62974;49.460;10.892;2024-01-07T09:52:44;97609.09;;;-0.12;100.00
73085;BME280;62974;49.460;10.892;2024-01-07T09:55:22;97606.16;;;0.20;100.00
73085;BME280;62974;49.460;10.892;2024-01-07T09:57:53;97607.44;;;-0.32;100.00
73085;BME280;62974;49.460;10.892;2024-01-07T10:00:21;97615.34;;;-0.32;100.00
73085;BME280;62974;49.460;10.892;2024-01-07T10:02:49;97613.09;;;-0.27;100.00
73085;BME280;62974;49.460;10.892;2024-01-07T10:05:18;97618.53;;;0.10;100.00
73085;BME280;62974;49.460;10.892;2024-01-07T10:07:48;97613.94;;;-0.27;100.00
73085;BME280;62974;49.460;10.892;2024-01-07T10:10:16;97641.50;;;-0.60;100.00
73085;BME280;62974;49.460;10.892;2024-01-07T10:12:45;97629.22;;;-0.30;100.00
73085;BME280;62974;49.460;10.892;2024-01-07T10:15:13;97631.16;;;-0.91;100.00
73085;BME280;62974;49.460;10.892;2024-01-07T10:17:42;97619.44;;;-0.59;100.00
73085;BME280;62974;49.460;10.892;2024-01-07T10:20:10;97630.47;;;-0.34;100.00
73085;BME280;62974;49.460;10.892;2024-01-07T10:22:40;97636.66;;;-0.64;100.00
73085;BME280;62974;49.460;10.892;2024-01-07T10:25:14;97631.22;;;-0.63;100.00
73085;BME280;62974;49.460;10.892;2024-01-07T10:27:43;97624.78;;;-0.20;100.00
73085;BME280;62974;49.460;10.892;2024-01-07T10:30:12;97629.06;;;-0.38;100.00
73085;BME280;62974;49.460;10.892;2024-01-07T10:32:41;97632.50;;;-0.57;100.00
73085;BME280;62974;49.460;10.892;2024-01-07T10:35:13;97626.44;;;0.10;100.00
73085;BME280;62974;49.460;10.892;2024-01-07T10:37:43;97628.41;;;0.08;100.00
73085;BME280;62974;49.460;10.892;2024-01-07T10:40:14;97635.09;;;-0.67;100.00
73085;BME280;62974;49.460;10.892;2024-01-07T10:42:46;97643.22;;;-0.49;100.00
73085;BME280;62974;49.460;10.892;2024-01-07T10:45:14;97647.16;;;-0.74;100.00
73085;BME280;62974;49.460;10.892;2024-01-07T10:47:49;97651.09;;;-0.59;100.00
73085;BME280;62974;49.460;10.892;2024-01-07T10:50:21;97644.88;;;-0.98;100.00
73085;BME280;62974;49.460;10.892;2024-01-07T10:52:50;97641.78;;;-0.72;100.00
73085;BME280;62974;49.460;10.892;2024-01-07T10:55:22;97640.44;;;-0.38;100.00
73085;BME280;62974;49.460;10.892;2024-01-07T10:57:50;97632.00;;;0.07;100.00
73085;BME280;62974;49.460;10.892;2024-01-07T11:00:18;97632.50;;;-0.57;100.00
73085;BME280;62974;49.460;10.892;2024-01-07T11:02:53;97640.94;;;-0.63;100.00
73085;BME280;62974;49.460;10.892;2024-01-07T11:05:28;97640.16;;;-0.35;100.00
73085;BME280;62974;49.460;10.892;2024-01-07T11:08:05;97644.03;;;-0.58;100.00
73085;BME280;62974;49.460;10.892;2024-01-07T11:10:43;97638.97;;;-0.80;100.00
73085;BME280;62974;49.460;10.892;2024-01-07T11:13:35;97632.22;;;-0.54;100.00
73085;BME280;62974;49.460;10.892;2024-01-07T11:16:05;97634.22;;;-0.37;100.00
73085;BME280;62974;49.460;10.892;2024-01-07T11:18:45;97639.03;;;-0.61;100.00
73085;BME280;62974;49.460;10.892;2024-01-07T11:21:20;97647.41;;;-0.86;100.00
73085;BME280;62974;49.460;10.892;2024-01-07T11:23:52;97637.53;;;-0.35;100.00
73085;BME280;62974;49.460;10.892;2024-01-07T11:26:20;97642.53;;;-0.41;100.00
73085;BME280;62974;49.460;10.892;2024-01-07T11:28:50;97646.28;;;-0.44;100.00
73085;BME280;62974;49.460;10.892;2024-01-07T11:31:19;97652.59;;;-1.06;100.00
73085;BME280;62974;49.460;10.892;2024-01-07T11:33:49;97650.00;;;-0.47;100.00
73085;BME280;62974;49.460;10.892;2024-01-07T11:36:18;97652.16;;;-0.71;100.00
73085;BME280;62974;49.460;10.892;2024-01-07T11:38:48;97644.22;;;-0.40;100.00
73085;BME280;62974;49.460;10.892;2024-01-07T11:41:21;97657.91;;;-0.56;100.00
73085;BME280;62974;49.460;10.892;2024-01-07T11:43:53;97669.59;;;-0.79;100.00
73085;BME280;62974;49.460;10.892;2024-01-07T11:46:21;97641.88;;;-0.24;100.00
73085;BME280;62974;49.460;10.892;2024-01-07T11:48:50;97662.59;;;-0.60;100.00
73085;BME280;62974;49.460;10.892;2024-01-07T11:51:18;97663.47;;;-0.89;100.00
73085;BME280;62974;49.460;10.892;2024-01-07T11:53:49;97650.03;;;-0.27;100.00
73085;BME280;62974;49.460;10.892;2024-01-07T11:56:16;97655.69;;;-0.61;100.00
73085;BME280;62974;49.460;10.892;2024-01-07T11:58:45;97663.72;;;-0.62;100.00
73085;BME280;62974;49.460;10.892;2024-01-07T12:01:14;97661.47;;;-0.76;100.00
73085;BME280;62974;49.460;10.892;2024-01-07T12:03:44;97666.69;;;-0.27;100.00
73085;BME280;62974;49.460;10.892;2024-01-07T12:06:15;97672.66;;;-0.84;100.00
73085;BME280;62974;49.460;10.892;2024-01-07T12:08:45;97676.78;;;-0.91;100.00
73085;BME280;62974;49.460;10.892;2024-01-07T12:11:14;97672.41;;;-0.71;100.00
73085;BME280;62974;49.460;10.892;2024-01-07T12:13:43;97675.03;;;-0.81;100.00
73085;BME280;62974;49.460;10.892;2024-01-07T12:16:12;97668.59;;;-0.58;100.00
73085;BME280;62974;49.460;10.892;2024-01-07T12:18:41;97671.84;;;-0.25;100.00
73085;BME280;62974;49.460;10.892;2024-01-07T12:21:08;97656.31;;;0.39;100.00
73085;BME280;62974;49.460;10.892;2024-01-07T12:23:47;97679.28;;;-0.50;100.00
73085;BME280;62974;49.460;10.892;2024-01-07T12:26:15;97681.50;;;-1.15;100.00
73085;BME280;62974;49.460;10.892;2024-01-07T12:28:44;97659.78;;;-0.18;100.00
73085;BME280;62974;49.460;10.892;2024-01-07T12:31:13;97688.94;;;-0.69;100.00
73085;BME280;62974;49.460;10.892;2024-01-07T12:33:44;97680.19;;;-0.70;100.00
73085;BME280;62974;49.460;10.892;2024-01-07T12:36:13;97671.59;;;-0.72;100.00
73085;BME280;62974;49.460;10.892;2024-01-07T12:38:43;97676.09;;;-0.53;100.00
73085;BME280;62974;49.460;10.892;2024-01-07T12:41:12;97677.22;;;-0.86;100.00
73085;BME280;62974;49.460;10.892;2024-01-07T12:43:40;97686.94;;;-0.86;100.00
73085;BME280;62974;49.460;10.892;2024-01-07T12:46:08;97680.88;;;-0.18;100.00
73085;BME280;62974;49.460;10.892;2024-01-07T12:48:40;97690.31;;;-0.75;100.00
73085;BME280;62974;49.460;10.892;2024-01-07T12:51:08;97692.88;;;-0.94;100.00
73085;BME280;62974;49.460;10.892;2024-01-07T12:53:36;97692.72;;;-1.23;100.00
73085;BME280;62974;49.460;10.892;2024-01-07T12:56:07;97699.25;;;-0.97;100.00
73085;BME280;62974;49.460;10.892;2024-01-07T12:58:35;97699.16;;;-0.85;100.00